Weather at Ignacio Agramonte International Airport

Public forecast

Using degrees Celsius for public forecast. Weather courtesy of forecast.io.

Current aviation weather report (METAR) for Ignacio Agramonte International Airport

Retrieved 2021/09/26 23:50 UTC (51 minutes ago):

MUCM 262350Z 36006KT 9000 VCTS SCT018CB BKN080 27/25 Q1016

Aviation forecast (TAF) for Ignacio Agramonte International Airport

Retrieved 2021-09-27 00:07 UTC (34 minutes ago):

TAF MUCM 262300Z 2700/2724 04008KT 9000 SCT020 TEMPO 2700/2702 VRB10KT 5000 TSRA SCT020CB BKN030 BECMG 2703/2705 VRB03KT BECMG 2715/2717 06008KT